Pedro De Toledo, Brazil
Current Conditions -  °F | °C
As of 3:00 PM on Sunday 23 Nov 2014 (Local Time) from SBSP Reporting Station
Broken Clouds Broken Clouds  
Wind Chill: 75°   Ceiling: 4500
Heat Index: 75°   Visibility: 6mi
Dew Point: 64°   Wind: 14mph
Humidity: 69%   Direction: 140°SE
Pressure: 30.03"   Gusts: NA
Location:  24.28°S, 47.23°W
Report Text: SBSP 231700Z 14012KT 9999 SCT018 SCT032 BKN045 24/18 Q1017
Loading
Personal Weather Stations






























Interactive Weather Map New forecast layout! Learn more

10-Day Weather Forecast

Advertisements
Track Severe Weather on mobile